Time;durP1;ratioP1;P1;durP2;ratioP2;P2;SDS_P1;SDS_P2;PMS_P1;PMS_P2;Temp;Humidity;BMP_temperature;BMP_pressure;BME280_temperature;BME280_humidity;BME280_pressure;Samples;Min_cycle;Max_cycle;Signal;HPM_P1;HPM_P2
2023/07/28 00:00:25;;;;;;;4.27;2.40;;;15.90;1.00;;;;;;8223206;28;20199;-63
2023/07/28 00:04:25;;;;;;;2.60;2.37;;;15.90;99.90;;;;;;8201942;28;20211;-62
2023/07/28 00:08:26;;;;;;;2.90;2.70;;;15.90;99.90;;;;;;8204380;28;20216;-64
2023/07/28 00:12:27;;;;;;;2.57;2.37;;;15.90;1.00;;;;;;8171196;28;20350;-65
2023/07/28 00:16:27;;;;;;;3.57;2.57;;;16.00;1.00;;;;;;8148821;28;20254;-64
2023/07/28 00:20:31;;;;;;;4.73;2.43;;;16.00;1.00;;;;;;8145978;28;20219;-64
2023/07/28 00:24:33;;;;;;;3.37;2.73;;;16.00;1.00;;;;;;8146862;28;20207;-63
2023/07/28 00:28:33;;;;;;;3.27;2.67;;;16.00;99.90;;;;;;8153726;28;20232;-64
2023/07/28 00:32:34;;;;;;;4.03;2.37;;;16.00;99.90;;;;;;8151426;28;20196;-63
2023/07/28 00:36:35;;;;;;;4.63;2.33;;;16.10;99.90;;;;;;8154714;28;20276;-64
2023/07/28 00:40:36;;;;;;;2.70;2.50;;;16.10;99.90;;;;;;8158988;28;20216;-63
2023/07/28 00:44:37;;;;;;;3.00;2.70;;;16.10;99.90;;;;;;8204732;28;20199;-64
2023/07/28 00:48:39;;;;;;;3.00;2.57;;;16.20;1.00;;;;;;8202781;28;20311;-63
2023/07/28 00:52:43;;;;;;;4.40;2.80;;;16.20;1.00;;;;;;8198773;28;20185;-67
2023/07/28 00:56:45;;;;;;;3.17;2.87;;;16.20;99.90;;;;;;8198855;28;20255;-63
2023/07/28 01:00:49;;;;;;;2.50;2.30;;;16.20;1.00;;;;;;8197342;28;20189;-62
2023/07/28 01:04:51;;;;;;;2.53;2.33;;;16.10;1.00;;;;;;8197441;28;20217;-63
2023/07/28 01:09:14;;;;;;;3.37;2.77;;;16.20;99.90;;;;;;8211685;28;20243;-63
2023/07/28 01:13:15;;;;;;;3.27;2.90;;;16.10;1.00;;;;;;8192610;28;20568;-63
2023/07/28 01:17:16;;;;;;;2.97;2.50;;;16.10;99.90;;;;;;8192367;28;20286;-63
2023/07/28 01:21:28;;;;;;;3.40;2.70;;;16.20;1.00;;;;;;8212126;28;20188;-62
2023/07/28 01:25:50;;;;;;;2.77;2.57;;;16.20;99.90;;;;;;8195904;28;20220;-62
2023/07/28 01:29:51;;;;;;;3.73;2.73;;;16.20;99.90;;;;;;8193617;28;20196;-63
2023/07/28 01:33:52;;;;;;;3.03;2.73;;;16.20;1.30;;;;;;8196110;28;20185;-64
2023/07/28 01:37:53;;;;;;;2.97;2.17;;;16.20;1.00;;;;;;8199991;28;20203;-63
2023/07/28 01:41:54;;;;;;;4.27;2.70;;;16.20;99.90;;;;;;8204201;28;20185;-63
2023/07/28 01:45:55;;;;;;;3.57;2.43;;;16.30;1.00;;;;;;8217151;28;20202;-64
2023/07/28 01:49:56;;;;;;;5.43;2.73;;;16.20;99.90;;;;;;8202997;28;20181;-64
2023/07/28 01:53:57;;;;;;;2.70;2.50;;;16.30;1.00;;;;;;8197399;28;20200;-63
2023/07/28 01:57:59;;;;;;;2.93;2.40;;;16.20;1.00;;;;;;8198389;28;20184;-63
2023/07/28 02:02:00;;;;;;;3.87;2.53;;;16.20;99.90;;;;;;8200572;28;20184;-63
2023/07/28 02:06:01;;;;;;;2.87;2.50;;;16.20;99.90;;;;;;8196026;28;20295;-62
2023/07/28 02:10:02;;;;;;;2.70;2.27;;;16.20;99.90;;;;;;8198456;28;20185;-62
2023/07/28 02:14:02;;;;;;;3.80;2.47;;;16.20;99.90;;;;;;8201482;28;20207;-64
2023/07/28 02:18:04;;;;;;;2.40;2.20;;;16.30;99.90;;;;;;8197691;28;20197;-64
2023/07/28 02:22:05;;;;;;;2.50;2.17;;;16.30;99.90;;;;;;8199257;28;20189;-64
2023/07/28 02:26:06;;;;;;;3.33;2.57;;;16.30;99.90;;;;;;8198100;28;20196;-63
2023/07/28 02:30:07;;;;;;;4.30;2.10;;;16.30;99.90;;;;;;8200658;28;20185;-63
2023/07/28 02:34:08;;;;;;;2.70;2.23;;;16.30;99.90;;;;;;8196614;28;20189;-63
2023/07/28 02:38:09;;;;;;;4.33;2.20;;;16.30;99.90;;;;;;8200964;28;20195;-64
2023/07/28 02:42:14;;;;;;;2.43;2.23;;;16.30;99.90;;;;;;8190419;28;20224;-64
2023/07/28 02:46:14;;;;;;;3.10;2.57;;;16.40;99.90;;;;;;8149341;28;20279;-64
2023/07/28 02:50:18;;;;;;;3.57;2.40;;;16.40;99.90;;;;;;8166500;28;20199;-61
2023/07/28 02:54:23;;;;;;;3.00;2.50;;;16.40;99.90;;;;;;8145171;28;20195;-63
2023/07/28 02:58:24;;;;;;;2.07;1.87;;;16.50;99.90;;;;;;8152268;28;20204;-63
2023/07/28 03:02:25;;;;;;;4.07;2.03;;;16.50;99.90;;;;;;8151402;28;20218;-63
2023/07/28 03:06:26;;;;;;;4.47;2.27;;;16.50;99.90;;;;;;8150716;28;20208;-63
2023/07/28 03:10:26;;;;;;;3.43;1.90;;;16.50;57.10;;;;;;8164799;28;20251;-64
2023/07/28 03:14:28;;;;;;;2.33;2.13;;;16.60;30.70;;;;;;8213862;28;20200;-62
2023/07/28 03:18:29;;;;;;;2.43;1.73;;;16.60;1.50;;;;;;8199038;28;20260;-62
2023/07/28 03:22:30;;;;;;;3.93;2.30;;;16.60;99.90;;;;;;8195574;28;20193;-63
2023/07/28 03:26:31;;;;;;;1.90;1.80;;;16.60;99.90;;;;;;8199718;28;20251;-62
2023/07/28 03:30:32;;;;;;;5.67;1.90;;;16.70;99.90;;;;;;8191774;28;20279;-63
2023/07/28 03:34:33;;;;;;;2.70;1.80;;;16.70;1.00;;;;;;8200227;28;20209;-64
2023/07/28 03:38:33;;;;;;;3.33;2.47;;;16.80;99.90;;;;;;8202580;28;20229;-61
2023/07/28 03:42:34;;;;;;;1.70;1.60;;;16.80;99.90;;;;;;8206358;28;20207;-63
2023/07/28 03:46:35;;;;;;;2.73;1.90;;;16.90;99.90;;;;;;8205422;28;20216;-62
2023/07/28 03:50:36;;;;;;;5.60;2.00;;;16.90;1.00;;;;;;8212490;28;20188;-63
2023/07/28 03:54:37;;;;;;;3.33;1.70;;;16.90;1.00;;;;;;8208327;28;20213;-61
2023/07/28 03:58:38;;;;;;;3.50;2.10;;;16.90;99.90;;;;;;8205217;28;20247;-62
2023/07/28 04:02:42;;;;;;;2.60;1.87;;;16.90;99.90;;;;;;8213279;28;20204;-68
2023/07/28 04:06:46;;;;;;;2.40;2.10;;;17.00;99.90;;;;;;8202674;28;20216;-65
2023/07/28 04:10:46;;;;;;;2.37;2.07;;;17.00;96.20;;;;;;8203660;28;20184;-66
2023/07/28 04:14:47;;;;;;;3.00;1.80;;;17.00;99.90;;;;;;8201114;28;20228;-66
2023/07/28 04:18:48;;;;;;;1.97;1.47;;;17.00;99.90;;;;;;8203008;28;20189;-67
2023/07/28 04:22:49;;;;;;;3.60;2.33;;;17.00;99.90;;;;;;8203866;28;20301;-65
2023/07/28 04:26:50;;;;;;;2.23;1.80;;;17.10;99.90;;;;;;8203848;28;20223;-64
2023/07/28 04:30:51;;;;;;;2.60;1.90;;;17.10;1.00;;;;;;8215916;28;20193;-66
2023/07/28 04:34:51;;;;;;;4.83;1.97;;;17.20;99.90;;;;;;8204037;28;20239;-65
2023/07/28 04:38:55;;;;;;;2.50;2.30;;;17.30;99.90;;;;;;8199699;28;20205;-66
2023/07/28 04:43:05;;;;;;;3.27;1.80;;;17.30;99.90;;;;;;8121420;28;20198;-63
2023/07/28 04:47:15;;;;;;;1.83;1.73;;;17.40;43.40;;;;;;8114563;28;20224;-63
2023/07/28 04:51:16;;;;;;;3.20;1.67;;;17.60;99.90;;;;;;8120246;28;20188;-62
2023/07/28 04:55:17;;;;;;;2.33;1.63;;;17.70;1.00;;;;;;8147597;28;20271;-64
2023/07/28 04:59:18;;;;;;;2.80;1.70;;;17.90;99.90;;;;;;8125349;28;20193;-63
2023/07/28 05:03:18;;;;;;;3.87;1.70;;;18.00;1.00;;;;;;8123941;28;20216;-64
2023/07/28 05:07:45;;;;;;;2.30;1.50;;;18.00;1.00;;;;;;8126705;28;20245;-63
2023/07/28 05:11:46;;;;;;;2.30;1.47;;;18.00;1.00;;;;;;8160175;28;20290;-62
2023/07/28 05:15:47;;;;;;;1.60;1.50;;;18.00;1.00;;;;;;8129987;28;20212;-62
2023/07/28 05:19:54;;;;;;;2.37;1.77;;;18.10;99.90;;;;;;8131120;28;20193;-67
2023/07/28 05:23:55;;;;;;;1.50;1.40;;;18.20;99.90;;;;;;8159979;28;20277;-63
2023/07/28 05:27:56;;;;;;;3.33;1.37;;;18.30;99.90;;;;;;8161120;28;20256;-63
2023/07/28 05:32:05;;;;;;;1.67;1.50;;;18.40;99.90;;;;;;8163159;28;20189;-63
2023/07/28 05:36:06;;;;;;;5.20;1.33;;;18.50;99.90;;;;;;8134654;28;20193;-62
2023/07/28 05:40:08;;;;;;;3.00;1.70;;;18.80;99.90;;;;;;8142899;28;20195;-65
2023/07/28 05:44:08;;;;;;;4.40;1.87;;;19.20;99.90;;;;;;8170208;28;20224;-61
2023/07/28 05:48:35;;;;;;;4.17;2.07;;;19.30;76.80;;;;;;8120718;28;20381;-65
2023/07/28 05:52:55;;;;;;;2.30;1.23;;;19.20;62.60;;;;;;8109248;28;20281;-64
2023/07/28 05:56:56;;;;;;;2.50;1.37;;;18.90;99.90;;;;;;8123345;28;20192;-62
2023/07/28 06:00:57;;;;;;;2.03;1.40;;;18.90;99.90;;;;;;8137520;28;20229;-62
2023/07/28 06:04:58;;;;;;;2.27;1.50;;;18.90;99.90;;;;;;8114816;28;20243;-64
2023/07/28 06:08:59;;;;;;;2.17;1.70;;;19.00;83.00;;;;;;8126486;28;20277;-64
2023/07/28 06:13:08;;;;;;;3.10;1.70;;;19.10;64.80;;;;;;8113924;28;20204;-63
2023/07/28 06:17:09;;;;;;;1.63;1.33;;;19.30;44.00;;;;;;8143151;28;20248;-63
2023/07/28 06:21:10;;;;;;;2.33;1.50;;;19.30;19.20;;;;;;8199973;28;20263;-66
2023/07/28 06:25:13;;;;;;;1.73;1.33;;;19.50;1.00;;;;;;8187963;28;20185;-65
2023/07/28 06:29:14;;;;;;;3.67;1.60;;;19.70;1.00;;;;;;8193167;28;20228;-65
2023/07/28 06:33:16;;;;;;;2.80;1.50;;;20.00;1.00;;;;;;8196550;28;20193;-64
2023/07/28 06:37:16;;;;;;;1.77;1.67;;;20.00;1.00;;;;;;8206460;28;20206;-65
2023/07/28 06:41:17;;;;;;;1.57;1.40;;;20.00;1.00;;;;;;8198198;28;20195;-64
2023/07/28 06:45:18;;;;;;;1.43;1.30;;;20.00;1.00;;;;;;8199882;28;20251;-68
2023/07/28 06:49:19;;;;;;;1.70;1.60;;;20.00;1.00;;;;;;8197078;28;20311;-65
2023/07/28 06:53:19;;;;;;;2.17;1.30;;;20.00;1.00;;;;;;8205324;28;20197;-67
2023/07/28 06:57:25;;;;;;;2.70;1.80;;;19.90;1.00;;;;;;8197154;28;20259;-65
2023/07/28 07:01:26;;;;;;;2.17;1.50;;;20.00;1.00;;;;;;8189321;28;20338;-66
2023/07/28 07:05:27;;;;;;;2.53;2.07;;;20.10;1.00;;;;;;8200145;28;20244;-67
2023/07/28 07:09:28;;;;;;;3.70;1.57;;;20.20;1.00;;;;;;8197448;28;20219;-66
2023/07/28 07:13:29;;;;;;;1.90;1.50;;;20.30;1.00;;;;;;8215268;28;20219;-64
2023/07/28 07:17:30;;;;;;;3.17;1.87;;;20.60;1.00;;;;;;8209519;28;20207;-67
2023/07/28 07:21:31;;;;;;;2.30;2.10;;;20.70;1.00;;;;;;8200981;28;20184;-65
2023/07/28 07:25:33;;;;;;;4.37;2.13;;;20.80;1.00;;;;;;8199429;28;20200;-65
2023/07/28 07:29:34;;;;;;;5.07;1.90;;;20.90;1.00;;;;;;8190966;28;20218;-64
2023/07/28 07:33:36;;;;;;;2.03;1.80;;;21.20;1.00;;;;;;8180684;28;20315;-66
2023/07/28 07:37:38;;;;;;;5.43;1.90;;;21.60;1.00;;;;;;8161795;28;20189;-66
2023/07/28 07:41:45;;;;;;;1.87;1.70;;;21.70;1.00;;;;;;8183810;28;20199;-66
2023/07/28 07:45:47;;;;;;;2.20;1.90;;;21.70;1.00;;;;;;8152469;28;20200;-65
2023/07/28 07:49:48;;;;;;;4.03;2.13;;;21.90;1.00;;;;;;8127435;28;20224;-65
2023/07/28 07:53:48;;;;;;;2.10;1.60;;;22.30;1.00;;;;;;8130164;28;20197;-67
2023/07/28 07:57:55;;;;;;;4.03;1.50;;;22.40;1.00;;;;;;8131266;28;20204;-65
2023/07/28 08:01:56;;;;;;;2.30;1.30;;;22.30;1.00;;;;;;8141843;28;20224;-66
2023/07/28 08:05:57;;;;;;;3.30;1.50;;;21.70;1.00;;;;;;8168372;28;20212;-65
2023/07/28 08:09:58;;;;;;;5.50;1.70;;;21.50;1.00;;;;;;8146513;28;20217;-65
2023/07/28 08:13:59;;;;;;;4.60;1.50;;;21.20;1.00;;;;;;8177061;28;20192;-64
2023/07/28 08:18:00;;;;;;;1.37;1.13;;;21.40;1.00;;;;;;8205782;28;20192;-65
2023/07/28 08:22:05;;;;;;;3.37;1.50;;;21.70;1.00;;;;;;8217573;28;20193;-66
2023/07/28 08:26:06;;;;;;;1.33;1.20;;;21.60;1.00;;;;;;8209794;28;20237;-65
2023/07/28 08:30:07;;;;;;;2.57;1.70;;;22.00;1.00;;;;;;8207573;28;20324;-66
2023/07/28 08:34:08;;;;;;;3.90;1.57;;;22.50;1.00;;;;;;8202623;28;20193;-66
2023/07/28 08:38:09;;;;;;;2.13;1.80;;;22.80;1.00;;;;;;8209225;28;20223;-65
2023/07/28 08:42:10;;;;;;;3.00;1.40;;;22.70;1.00;;;;;;8207041;28;20196;-65
2023/07/28 08:46:11;;;;;;;6.00;1.53;;;22.80;1.00;;;;;;8200472;28;20312;-66
2023/07/28 08:50:12;;;;;;;1.23;1.13;;;22.90;1.00;;;;;;8210368;28;20181;-64
2023/07/28 08:54:13;;;;;;;1.60;1.30;;;23.10;1.00;;;;;;8179595;28;20192;-65
2023/07/28 08:58:21;;;;;;;1.80;1.30;;;22.80;1.00;;;;;;8182329;28;20193;-67
2023/07/28 09:02:22;;;;;;;1.80;1.10;;;22.60;1.00;;;;;;8179359;28;20217;-66
2023/07/28 09:06:31;;;;;;;3.60;1.03;;;22.60;1.00;;;;;;8179368;28;20199;-67
2023/07/28 09:10:57;;;;;;;1.00;0.80;;;22.70;1.00;;;;;;8182466;28;20195;-65
2023/07/28 09:14:58;;;;;;;3.10;1.00;;;22.40;1.00;;;;;;8180095;28;20211;-66
2023/07/28 09:19:12;;;;;;;1.93;1.10;;;22.10;1.00;;;;;;8177883;28;20223;-64
2023/07/28 09:23:15;;;;;;;3.13;0.77;;;22.30;1.00;;;;;;8195268;28;20271;-64
2023/07/28 09:27:24;;;;;;;1.67;0.60;;;22.20;1.00;;;;;;8199726;28;20270;-67
2023/07/28 09:31:32;;;;;;;0.83;0.50;;;22.30;1.00;;;;;;8219442;28;20189;-64
2023/07/28 09:35:33;;;;;;;1.93;0.50;;;22.70;1.00;;;;;;8175716;28;20280;-64
2023/07/28 09:39:36;;;;;;;1.60;0.70;;;22.90;1.00;;;;;;8172218;28;20219;-65
2023/07/28 09:43:44;;;;;;;0.70;0.40;;;22.60;1.00;;;;;;8153841;28;20192;-68
2023/07/28 09:47:46;;;;;;;1.10;0.43;;;22.50;1.00;;;;;;8156011;28;20227;-66
2023/07/28 09:51:53;;;;;;;1.83;0.50;;;22.80;1.00;;;;;;8149944;28;20193;-67
2023/07/28 09:56:04;;;;;;;1.00;0.40;;;22.50;1.00;;;;;;8134192;28;20214;-65
2023/07/28 10:00:13;;;;;;;0.90;0.50;;;22.50;1.00;;;;;;8139794;28;20182;-66
2023/07/28 10:04:14;;;;;;;1.57;0.33;;;22.80;1.00;;;;;;8148084;28;20209;-67
2023/07/28 10:08:16;;;;;;;1.43;0.60;;;23.30;1.00;;;;;;8167530;28;20221;-66
2023/07/28 10:12:44;;;;;;;0.53;0.40;;;23.50;1.00;;;;;;8178893;28;20185;-66
2023/07/28 10:16:45;;;;;;;0.60;0.40;;;23.90;1.00;;;;;;8151965;28;20212;-65
2023/07/28 10:20:51;;;;;;;0.90;0.40;;;23.80;1.00;;;;;;8188348;28;20288;-68
2023/07/28 10:25:00;;;;;;;1.83;0.40;;;24.00;99.90;;;;;;8201402;28;20267;-68
2023/07/28 10:29:18;;;;;;;0.50;0.40;;;24.30;99.90;;;;;;8203465;28;20221;-67
2023/07/28 10:33:30;;;;;;;0.50;0.30;;;24.20;99.90;;;;;;8204299;28;20195;-67
2023/07/28 10:37:31;;;;;;;0.30;0.27;;;24.20;99.90;;;;;;8200757;28;20188;-67
2023/07/28 10:41:35;;;;;;;2.53;0.40;;;24.30;99.90;;;;;;8205585;28;20295;-67
2023/07/28 10:45:36;;;;;;;2.13;0.40;;;24.30;99.90;;;;;;8202656;28;20284;-68
2023/07/28 10:49:36;;;;;;;0.40;0.30;;;24.30;99.90;;;;;;8203887;28;20216;-67
2023/07/28 10:53:40;;;;;;;0.47;0.30;;;24.10;99.90;;;;;;8204922;28;20187;-65
2023/07/28 10:57:42;;;;;;;2.30;0.30;;;24.60;99.90;;;;;;8208754;28;20208;-66
2023/07/28 11:01:43;;;;;;;0.30;0.20;;;24.80;99.90;;;;;;8210183;28;20184;-68
2023/07/28 11:05:44;;;;;;;1.67;0.30;;;25.20;99.90;;;;;;8203348;28;20227;-65
2023/07/28 11:09:46;;;;;;;0.80;0.43;;;25.00;99.90;;;;;;8203272;28;20282;-66
2023/07/28 11:13:47;;;;;;;2.05;0.40;;;24.70;99.90;;;;;;8204936;28;20188;-67
2023/07/28 11:17:49;;;;;;;2.15;0.20;;;25.00;99.90;;;;;;8210181;28;20212;-66
2023/07/28 11:21:51;;;;;;;1.05;0.30;;;25.00;99.90;;;;;;8203941;28;20197;-67
2023/07/28 11:25:52;;;;;;;0.50;0.40;;;25.20;99.90;;;;;;8212388;28;20197;-68
2023/07/28 11:29:53;;;;;;;3.23;0.40;;;25.10;99.90;;;;;;8196909;28;20224;-66
2023/07/28 11:33:54;;;;;;;1.25;0.30;;;25.00;99.90;;;;;;8187151;28;20188;-69
2023/07/28 11:37:55;;;;;;;0.85;0.40;;;25.00;99.90;;;;;;8186060;28;20201;-67
2023/07/28 11:41:57;;;;;;;0.50;0.47;;;25.10;99.90;;;;;;8186476;28;20192;-67
2023/07/28 11:45:58;;;;;;;0.50;0.40;;;25.40;99.90;;;;;;8186417;28;20196;-67
2023/07/28 11:50:02;;;;;;;2.83;0.43;;;25.30;99.90;;;;;;8184393;28;20224;-67
2023/07/28 11:54:03;;;;;;;1.90;0.77;;;25.00;99.90;;;;;;8186269;28;20197;-66
2023/07/28 11:58:12;;;;;;;0.40;0.30;;;25.10;99.90;;;;;;8178704;28;20193;-66
2023/07/28 12:02:13;;;;;;;1.33;0.40;;;25.60;99.90;;;;;;8183071;28;20204;-68
2023/07/28 12:06:14;;;;;;;0.70;0.60;;;25.60;99.90;;;;;;8180607;28;20299;-64
2023/07/28 12:10:15;;;;;;;0.68;0.40;;;25.60;99.90;;;;;;8196755;28;20234;-64
2023/07/28 12:14:16;;;;;;;1.20;0.50;;;25.70;99.90;;;;;;8182738;28;20220;-66
2023/07/28 12:18:19;;;;;;;0.52;0.50;;;26.00;99.90;;;;;;8182453;28;20235;-66
2023/07/28 12:22:23;;;;;;;0.40;0.40;;;25.90;99.90;;;;;;8195073;28;20298;-68
2023/07/28 12:26:23;;;;;;;0.57;0.43;;;26.30;99.90;;;;;;8181902;28;20205;-69
2023/07/28 12:30:24;;;;;;;1.83;0.50;;;26.80;99.90;;;;;;8207323;28;20185;-65
2023/07/28 12:34:25;;;;;;;1.20;0.40;;;26.80;99.90;;;;;;8227205;28;20185;-65
2023/07/28 12:38:26;;;;;;;0.73;0.43;;;26.70;99.90;;;;;;8216476;28;20200;-64
2023/07/28 12:42:27;;;;;;;0.40;0.40;;;26.30;99.90;;;;;;8226644;28;20196;-63
2023/07/28 12:46:28;;;;;;;1.02;0.40;;;26.30;99.90;;;;;;8212205;28;20188;-65
2023/07/28 12:50:29;;;;;;;1.02;0.52;;;26.10;99.90;;;;;;8208519;28;20189;-67
2023/07/28 12:54:33;;;;;;;1.02;0.50;;;25.90;99.90;;;;;;8210319;28;20203;-65
2023/07/28 12:58:34;;;;;;;1.23;0.40;;;26.00;99.90;;;;;;8211467;28;20193;-64
2023/07/28 13:02:34;;;;;;;6.13;0.52;;;25.90;99.90;;;;;;8211700;28;20188;-65
2023/07/28 13:06:36;;;;;;;0.50;0.40;;;26.00;99.90;;;;;;8219917;28;20192;-65
2023/07/28 13:10:40;;;;;;;0.60;0.50;;;25.70;99.90;;;;;;8211868;28;20189;-64
2023/07/28 13:14:41;;;;;;;0.70;0.43;;;26.00;99.90;;;;;;8210876;28;20251;-66
2023/07/28 13:18:44;;;;;;;0.75;0.30;;;26.40;99.90;;;;;;8206598;28;20232;-63
2023/07/28 13:22:45;;;;;;;0.60;0.40;;;26.50;99.90;;;;;;8208980;28;20189;-64
2023/07/28 13:26:46;;;;;;;0.80;0.50;;;26.90;99.90;;;;;;8205655;28;20223;-63
2023/07/28 13:30:47;;;;;;;1.17;0.40;;;26.70;99.90;;;;;;8209819;28;20280;-64
2023/07/28 13:34:48;;;;;;;1.17;0.38;;;26.30;99.90;;;;;;8204831;28;20188;-63
2023/07/28 13:38:49;;;;;;;2.63;0.50;;;26.10;99.90;;;;;;8208799;28;20220;-68
2023/07/28 13:42:50;;;;;;;1.13;0.60;;;26.20;99.90;;;;;;8223335;28;20199;-64
2023/07/28 13:46:50;;;;;;;0.40;0.30;;;26.40;99.90;;;;;;8210326;28;20279;-66
2023/07/28 13:50:51;;;;;;;0.50;0.45;;;26.10;99.90;;;;;;8209944;28;20195;-65
2023/07/28 13:54:52;;;;;;;0.40;0.30;;;26.00;99.90;;;;;;8211597;28;20192;-64
2023/07/28 13:58:53;;;;;;;0.82;0.38;;;25.90;99.90;;;;;;8220651;28;20273;-65
2023/07/28 14:02:53;;;;;;;0.82;0.50;;;26.20;99.90;;;;;;8196506;28;20216;-62
2023/07/28 14:06:54;;;;;;;0.43;0.40;;;26.40;99.90;;;;;;8192759;28;20212;-64
2023/07/28 14:10:55;;;;;;;0.93;0.35;;;26.50;99.90;;;;;;8184170;28;20223;-62
2023/07/28 14:14:56;;;;;;;1.90;0.50;;;26.50;99.90;;;;;;8186307;28;20211;-67
2023/07/28 14:18:57;;;;;;;0.68;0.40;;;26.80;99.90;;;;;;8186992;28;20200;-63
2023/07/28 14:23:03;;;;;;;0.52;0.30;;;26.70;99.90;;;;;;8189618;28;20188;-64
2023/07/28 14:27:06;;;;;;;0.98;0.60;;;26.50;99.90;;;;;;8184800;28;20208;-62
2023/07/28 14:31:07;;;;;;;0.82;0.50;;;26.20;99.90;;;;;;8187270;28;20185;-64
2023/07/28 14:35:08;;;;;;;0.95;0.40;;;26.00;99.90;;;;;;8199787;28;20189;-64
2023/07/28 14:39:09;;;;;;;0.60;0.50;;;26.30;99.90;;;;;;8204696;28;20192;-63
2023/07/28 14:43:10;;;;;;;0.73;0.40;;;26.40;99.90;;;;;;8223490;28;20180;-64
2023/07/28 14:47:10;;;;;;;0.55;0.40;;;26.50;99.90;;;;;;8203717;28;20220;-65
2023/07/28 14:51:11;;;;;;;1.05;0.40;;;26.70;99.90;;;;;;8206252;28;20185;-63
2023/07/28 14:55:12;;;;;;;0.50;0.35;;;26.60;99.90;;;;;;8222478;28;20184;-62
2023/07/28 14:59:13;;;;;;;1.48;0.55;;;26.40;99.90;;;;;;8210285;28;20196;-65
2023/07/28 15:03:14;;;;;;;1.92;0.40;;;26.40;99.90;;;;;;8218486;28;20294;-66
2023/07/28 15:07:17;;;;;;;0.80;0.60;;;26.40;99.90;;;;;;8200404;28;20304;-66
2023/07/28 15:11:18;;;;;;;0.70;0.50;;;26.60;99.90;;;;;;8213628;28;20299;-64
2023/07/28 15:15:19;;;;;;;0.55;0.55;;;26.80;99.90;;;;;;8198869;28;20196;-65
2023/07/28 15:19:20;;;;;;;1.23;0.57;;;26.70;99.90;;;;;;8206442;28;20188;-65
2023/07/28 15:23:25;;;;;;;0.70;0.50;;;26.50;99.90;;;;;;8216607;28;20200;-66
2023/07/28 15:27:27;;;;;;;1.20;0.60;;;26.20;99.90;;;;;;8199615;28;20214;-65
2023/07/28 15:31:28;;;;;;;2.10;0.80;;;26.10;99.90;;;;;;8200711;28;20196;-65
2023/07/28 15:35:28;;;;;;;1.13;0.50;;;25.80;99.90;;;;;;8179854;28;20192;-65
2023/07/28 15:39:32;;;;;;;0.80;0.60;;;26.00;99.90;;;;;;8183546;28;20228;-65
2023/07/28 15:43:34;;;;;;;1.42;0.73;;;26.20;99.90;;;;;;8178360;28;20192;-65
2023/07/28 15:47:35;;;;;;;1.13;0.60;;;26.50;99.90;;;;;;8197241;28;20271;-65
2023/07/28 15:51:43;;;;;;;3.38;0.70;;;26.60;99.90;;;;;;8179027;28;20247;-64
2023/07/28 15:55:44;;;;;;;1.02;0.75;;;26.40;99.90;;;;;;8182066;28;20188;-66
2023/07/28 15:59:46;;;;;;;2.78;0.88;;;26.20;99.90;;;;;;8179568;28;20205;-66
2023/07/28 16:03:48;;;;;;;1.13;0.90;;;25.80;99.90;;;;;;8195673;28;20211;-67
2023/07/28 16:07:49;;;;;;;0.82;0.57;;;26.00;99.90;;;;;;8217293;28;20222;-65
2023/07/28 16:11:50;;;;;;;2.40;1.02;;;26.00;99.90;;;;;;8205473;28;20185;-66
2023/07/28 16:15:51;;;;;;;1.20;0.82;;;26.10;99.90;;;;;;8206627;28;20248;-65
2023/07/28 16:19:52;;;;;;;1.70;0.95;;;26.00;99.90;;;;;;8205931;28;20184;-66
2023/07/28 16:23:53;;;;;;;4.13;0.77;;;26.00;99.90;;;;;;8208020;28;20239;-66
2023/07/28 16:27:57;;;;;;;1.30;0.85;;;26.00;99.90;;;;;;8208980;28;20240;-66
2023/07/28 16:32:00;;;;;;;2.03;0.80;;;26.00;99.90;;;;;;8203802;28;20184;-65
2023/07/28 16:36:02;;;;;;;1.52;0.90;;;25.80;99.90;;;;;;8200789;28;20187;-66
2023/07/28 16:40:04;;;;;;;2.90;1.00;;;25.90;99.90;;;;;;8197952;28;20199;-66
2023/07/28 16:44:05;;;;;;;4.35;1.00;;;26.00;99.90;;;;;;8215714;28;20181;-65
2023/07/28 16:48:06;;;;;;;2.65;0.82;;;25.90;99.90;;;;;;8196596;28;20242;-66
2023/07/28 16:52:07;;;;;;;2.88;0.80;;;25.70;99.90;;;;;;8198702;28;20193;-66
2023/07/28 16:56:08;;;;;;;1.17;0.80;;;25.80;99.90;;;;;;8197752;28;20216;-65
2023/07/28 17:00:10;;;;;;;1.93;1.07;;;25.90;99.90;;;;;;8209575;28;20198;-65
2023/07/28 17:04:11;;;;;;;1.97;0.90;;;25.70;99.90;;;;;;8199334;28;20217;-67
2023/07/28 17:08:12;;;;;;;1.97;1.10;;;25.30;99.90;;;;;;8196008;28;20248;-66
2023/07/28 17:12:13;;;;;;;1.10;1.00;;;25.00;99.90;;;;;;8199682;28;20283;-65
2023/07/28 17:16:14;;;;;;;3.27;1.13;;;25.00;99.90;;;;;;8217402;28;20196;-66
2023/07/28 17:20:15;;;;;;;1.47;1.10;;;25.00;99.90;;;;;;8197883;28;20199;-65
2023/07/28 17:24:17;;;;;;;1.10;1.00;;;25.20;99.90;;;;;;8195897;28;20197;-64
2023/07/28 17:28:17;;;;;;;3.00;1.10;;;25.30;99.90;;;;;;8214181;28;20212;-64
2023/07/28 17:32:19;;;;;;;2.97;1.20;;;25.20;99.90;;;;;;8197744;28;20188;-64
2023/07/28 17:36:20;;;;;;;1.83;1.40;;;24.90;99.90;;;;;;8205642;28;20196;-64
2023/07/28 17:40:21;;;;;;;3.07;2.07;;;24.60;99.90;;;;;;8200436;28;20200;-64
2023/07/28 17:44:22;;;;;;;4.47;1.63;;;24.50;99.90;;;;;;8202736;28;20192;-64
2023/07/28 17:48:23;;;;;;;2.57;1.60;;;24.50;99.90;;;;;;8217574;28;20227;-66
2023/07/28 17:52:27;;;;;;;1.53;1.20;;;24.60;99.90;;;;;;8199019;28;20252;-63
2023/07/28 17:56:28;;;;;;;2.83;1.00;;;25.00;99.90;;;;;;8198976;28;20197;-65
2023/07/28 18:00:28;;;;;;;2.27;0.90;;;25.30;99.90;;;;;;8216618;28;20201;-65
2023/07/28 18:04:29;;;;;;;4.07;1.30;;;24.90;99.90;;;;;;8199532;28;20296;-65
2023/07/28 18:08:30;;;;;;;3.23;2.47;;;24.40;99.90;;;;;;8216420;28;20252;-65
2023/07/28 18:12:31;;;;;;;2.10;1.60;;;23.90;99.90;;;;;;8200331;28;20204;-64
2023/07/28 18:16:32;;;;;;;2.00;1.33;;;23.50;99.90;;;;;;8205476;28;20213;-65
2023/07/28 18:20:33;;;;;;;3.53;2.10;;;23.30;99.90;;;;;;8204350;28;20251;-66
2023/07/28 18:24:34;;;;;;;3.80;2.27;;;23.30;99.90;;;;;;8217605;28;20304;-65
2023/07/28 18:28:35;;;;;;;3.30;2.23;;;23.40;99.90;;;;;;8209193;28;20247;-66
2023/07/28 18:32:36;;;;;;;2.33;2.10;;;23.60;99.90;;;;;;8204898;28;20189;-65
2023/07/28 18:36:37;;;;;;;2.27;1.67;;;23.80;99.90;;;;;;8220286;28;20215;-64
2023/07/28 18:40:38;;;;;;;4.83;2.30;;;23.70;99.90;;;;;;8204288;28;20201;-62
2023/07/28 18:44:38;;;;;;;5.53;2.60;;;23.40;99.90;;;;;;8198594;28;20189;-63
2023/07/28 18:48:39;;;;;;;3.17;2.30;;;22.90;99.90;;;;;;8198984;28;20226;-62
2023/07/28 18:52:55;;;;;;;2.30;2.00;;;22.50;99.90;;;;;;8181309;28;20200;-63
2023/07/28 18:56:55;;;;;;;2.30;2.10;;;22.20;99.90;;;;;;8181685;28;20271;-63
2023/07/28 19:00:59;;;;;;;1.73;1.63;;;21.80;99.90;;;;;;8176600;28;20197;-62
2023/07/28 19:05:03;;;;;;;1.77;1.60;;;21.60;99.90;;;;;;8177462;28;20200;-64
2023/07/28 19:09:04;;;;;;;2.87;1.73;;;21.30;1.00;;;;;;8180357;28;20246;-64
2023/07/28 19:13:05;;;;;;;1.53;1.43;;;21.00;1.00;;;;;;8203086;28;20227;-63
2023/07/28 19:17:06;;;;;;;1.67;1.50;;;20.80;1.00;;;;;;8218378;28;20223;-64
2023/07/28 19:21:07;;;;;;;2.20;1.37;;;20.60;1.00;;;;;;8206671;28;20247;-64
2023/07/28 19:25:08;;;;;;;2.03;1.67;;;20.30;1.00;;;;;;8201950;28;20256;-64
2023/07/28 19:29:09;;;;;;;1.60;1.50;;;20.20;1.00;;;;;;8202724;28;20213;-63
2023/07/28 19:33:10;;;;;;;2.20;1.40;;;20.10;1.00;;;;;;8199814;28;20188;-63
2023/07/28 19:37:11;;;;;;;1.53;1.30;;;20.10;1.00;;;;;;8206552;28;20200;-63
2023/07/28 19:41:14;;;;;;;1.50;1.40;;;20.00;1.00;;;;;;8207982;28;20185;-64
2023/07/28 19:45:18;;;;;;;1.50;1.40;;;20.00;1.00;;;;;;8208644;28;20255;-64
2023/07/28 19:49:19;;;;;;;1.90;1.37;;;19.90;1.00;;;;;;8204296;28;20216;-64
2023/07/28 19:53:19;;;;;;;2.30;1.70;;;19.80;1.00;;;;;;8207609;28;20195;-63
2023/07/28 19:57:23;;;;;;;2.30;1.53;;;19.70;1.00;;;;;;8207069;28;20193;-64
2023/07/28 20:01:29;;;;;;;2.00;1.60;;;19.60;1.00;;;;;;8204366;28;20211;-63
2023/07/28 20:05:30;;;;;;;1.87;1.67;;;19.50;1.00;;;;;;8204819;28;20299;-63
2023/07/28 20:09:32;;;;;;;1.63;1.53;;;19.40;1.00;;;;;;8205319;28;20227;-64
2023/07/28 20:13:32;;;;;;;1.73;1.50;;;19.30;1.00;;;;;;8205276;28;20184;-64
2023/07/28 20:17:34;;;;;;;2.63;1.90;;;19.20;1.00;;;;;;8201907;28;20319;-63
2023/07/28 20:21:35;;;;;;;1.67;1.50;;;19.00;1.00;;;;;;8223832;28;20203;-63
2023/07/28 20:25:39;;;;;;;2.87;1.80;;;18.90;1.00;;;;;;8199858;28;20190;-65
2023/07/28 20:29:40;;;;;;;3.03;1.63;;;18.80;1.00;;;;;;8204086;28;20217;-64
2023/07/28 20:33:42;;;;;;;1.90;1.80;;;18.60;23.80;;;;;;8201542;28;20188;-63
2023/07/28 20:37:43;;;;;;;1.60;1.50;;;18.40;63.30;;;;;;8207694;28;20276;-63
2023/07/28 20:41:44;;;;;;;2.17;2.00;;;18.20;99.90;;;;;;8197871;28;20185;-64
2023/07/28 20:45:45;;;;;;;1.73;1.60;;;18.10;99.90;;;;;;8202061;28;20280;-63
2023/07/28 20:49:47;;;;;;;1.80;1.70;;;18.00;99.90;;;;;;8203813;28;20216;-63
2023/07/28 20:53:48;;;;;;;1.40;1.30;;;17.80;99.90;;;;;;8203673;28;20184;-64
2023/07/28 20:57:49;;;;;;;1.70;1.60;;;17.70;99.90;;;;;;8203781;28;20203;-65
2023/07/28 21:01:50;;;;;;;2.10;1.87;;;17.60;99.90;;;;;;8202943;28;20220;-65
2023/07/28 21:05:52;;;;;;;2.00;1.90;;;17.60;99.90;;;;;;8221616;28;20216;-71